Time;durP1;ratioP1;P1;durP2;ratioP2;P2;SDS_P1;SDS_P2;PMS_P1;PMS_P2;Temp;Humidity;BMP_temperature;BMP_pressure;BME280_temperature;BME280_humidity;BME280_pressure;Samples;Min_cycle;Max_cycle;Signal;HPM_P1;HPM_P2
2022/04/01 00:00:47;;;;;;;20.33;14.67;;;11.50;68.80;;;-142.21;100.00;112049.66;4954541;29;20449;-73
2022/04/01 00:03:26;;;;;;;20.43;14.37;;;11.50;67.70;;;-142.21;100.00;112049.66;4947356;29;20829;-73
2022/04/01 00:05:53;;;;;;;21.07;15.13;;;11.40;67.80;;;-142.21;100.00;112049.66;4944723;29;20453;-73
2022/04/01 00:08:21;;;;;;;21.53;14.60;;;11.40;67.50;;;-142.21;100.00;112049.66;4955168;29;20457;-73
2022/04/01 00:10:49;;;;;;;21.27;15.43;;;11.30;67.50;;;-142.21;100.00;112049.66;4954310;29;20461;-73
2022/04/01 00:13:17;;;;;;;19.53;13.70;;;11.40;68.00;;;-142.21;100.00;112049.66;4954631;29;20552;-73
2022/04/01 00:15:44;;;;;;;20.77;13.53;;;11.40;67.50;;;-142.21;100.00;112049.66;4955381;29;20459;-73
2022/04/01 00:18:11;;;;;;;20.27;14.67;;;11.40;67.60;;;-142.21;100.00;112049.66;4954125;29;20778;-73
2022/04/01 00:20:38;;;;;;;18.27;13.20;;;11.40;67.80;;;-142.21;100.00;112049.66;4954797;29;20448;-72
2022/04/01 00:23:05;;;;;;;19.43;14.17;;;11.40;67.30;;;-142.21;100.00;112049.66;4950171;29;20477;-73
2022/04/01 00:25:33;;;;;;;18.57;13.73;;;11.40;67.20;;;-142.21;100.00;112049.66;4948528;29;20499;-73
2022/04/01 00:28:02;;;;;;;19.80;13.43;;;11.40;67.10;;;-142.21;100.00;112049.66;4954730;28;20567;-73
2022/04/01 00:30:29;;;;;;;20.37;13.77;;;11.40;67.70;;;-142.21;100.00;112049.66;4954641;29;20460;-73
2022/04/01 00:32:56;;;;;;;18.07;12.97;;;11.40;67.30;;;-142.21;100.00;112049.66;4954937;29;20497;-73
2022/04/01 00:35:23;;;;;;;19.10;13.17;;;11.40;67.00;;;-142.21;100.00;112049.66;4955231;29;20560;-74
2022/04/01 00:37:51;;;;;;;19.33;14.10;;;11.30;66.90;;;-142.21;100.00;112049.66;4955620;28;20453;-71
2022/04/01 00:40:19;;;;;;;18.67;13.50;;;11.30;66.90;;;-142.21;100.00;112049.66;4956286;28;20480;-73
2022/04/01 00:42:46;;;;;;;18.67;13.30;;;11.30;66.80;;;-142.21;100.00;112049.66;4957043;29;20871;-74
2022/04/01 00:45:16;;;;;;;18.27;13.10;;;11.30;67.10;;;-142.21;100.00;112049.66;4955593;29;20945;-73
2022/04/01 00:47:43;;;;;;;19.40;14.20;;;11.20;66.70;;;-142.21;100.00;112049.66;4955834;28;20459;-72
2022/04/01 00:50:11;;;;;;;21.30;13.47;;;11.20;67.50;;;-142.21;100.00;112049.66;4957752;29;20453;-73
2022/04/01 00:52:39;;;;;;;18.03;13.30;;;11.20;67.10;;;-142.21;100.00;112049.66;4958042;29;20558;-73
2022/04/01 00:55:08;;;;;;;18.73;13.37;;;11.20;67.00;;;-142.21;100.00;112049.66;4953328;29;20945;-73
2022/04/01 00:57:36;;;;;;;19.20;13.10;;;11.20;67.20;;;-142.21;100.00;112049.66;4962099;28;20521;-73
2022/04/01 01:00:06;;;;;;;18.97;13.73;;;11.10;67.50;;;-142.21;100.00;112049.66;4954052;29;20456;-73
2022/04/01 01:02:35;;;;;;;20.90;14.47;;;11.10;67.00;;;-142.21;100.00;112049.66;4954082;29;20456;-73
2022/04/01 01:05:03;;;;;;;21.10;14.27;;;11.10;67.10;;;-142.21;100.00;112049.66;4953179;29;20517;-73
2022/04/01 01:07:31;;;;;;;21.13;14.50;;;11.00;67.50;;;-142.21;100.00;112049.66;4953445;29;20587;-73
2022/04/01 01:09:59;;;;;;;23.80;15.00;;;11.00;67.70;;;-142.21;100.00;112049.66;4953824;29;20942;-73
2022/04/01 01:12:27;;;;;;;18.43;14.47;;;10.90;67.30;;;-142.21;100.00;112049.66;4948656;29;20997;-73
2022/04/01 01:14:54;;;;;;;20.33;14.50;;;10.80;67.30;;;-142.21;100.00;112049.66;4953669;29;20799;-73
2022/04/01 01:17:21;;;;;;;21.10;14.90;;;10.80;68.00;;;-142.21;100.00;112049.66;4953453;29;21000;-73
2022/04/01 01:19:50;;;;;;;21.00;14.90;;;10.80;68.00;;;-142.21;100.00;112049.66;4953261;29;20533;-73
2022/04/01 01:22:17;;;;;;;21.97;14.53;;;10.80;68.00;;;-142.21;100.00;112049.66;4954290;29;20724;-73
2022/04/01 01:24:46;;;;;;;19.83;14.13;;;10.80;67.30;;;-142.21;100.00;112049.66;4953116;29;21040;-73
2022/04/01 01:27:14;;;;;;;21.23;14.87;;;10.70;67.30;;;-142.21;100.00;112049.66;4948632;28;20481;-73
2022/04/01 01:29:43;;;;;;;21.00;14.53;;;10.60;67.80;;;-142.21;100.00;112049.66;4952790;28;20453;-73
2022/04/01 01:32:19;;;;;;;19.63;14.27;;;10.60;67.80;;;-142.21;100.00;112049.66;4952858;29;20489;-73
2022/04/01 01:34:46;;;;;;;20.13;13.87;;;10.60;67.60;;;-142.21;100.00;112049.66;4951011;29;20444;-73
2022/04/01 01:37:13;;;;;;;20.63;14.30;;;10.70;67.10;;;-142.21;100.00;112049.66;4953637;29;20457;-73
2022/04/01 01:39:41;;;;;;;20.27;14.10;;;10.60;67.30;;;-142.21;100.00;112049.66;4951873;29;20452;-73
2022/04/01 01:42:10;;;;;;;17.77;13.97;;;10.70;66.90;;;-142.21;100.00;112049.66;4953752;29;20475;-73
2022/04/01 01:44:37;;;;;;;18.73;14.37;;;10.70;66.70;;;-142.21;100.00;112049.66;4953053;29;20452;-73
2022/04/01 01:47:05;;;;;;;17.73;13.47;;;10.70;66.80;;;-142.21;100.00;112049.66;4953408;29;20451;-72
2022/04/01 01:49:33;;;;;;;18.90;13.23;;;10.80;66.60;;;-142.21;100.00;112049.66;4950591;29;20448;-72
2022/04/01 01:54:49;;;;;;;21.47;14.07;;;10.90;66.50;;;-142.21;100.00;112049.66;4951760;29;20436;-73
2022/04/01 01:57:22;;;;;;;20.13;14.47;;;10.90;66.70;;;-142.21;100.00;112049.66;4952813;29;20449;-72
2022/04/01 01:59:50;;;;;;;21.20;13.60;;;10.90;66.90;;;-142.21;100.00;112049.66;4953260;29;20485;-73
2022/04/01 02:02:19;;;;;;;19.07;14.33;;;10.90;66.50;;;-142.21;100.00;112049.66;4952504;29;20441;-74
2022/04/01 02:04:46;;;;;;;19.47;13.83;;;10.90;67.10;;;-142.21;100.00;112049.66;4955244;28;20544;-72
2022/04/01 02:07:14;;;;;;;21.17;15.00;;;10.90;67.80;;;-142.21;100.00;112049.66;4952931;29;20460;-73
2022/04/01 02:09:43;;;;;;;19.20;13.93;;;10.90;66.90;;;-142.21;100.00;112049.66;4945244;28;20450;-73
2022/04/01 02:12:11;;;;;;;23.20;15.37;;;10.90;67.10;;;-142.21;100.00;112049.66;4949445;29;21035;-73
2022/04/01 02:14:40;;;;;;;26.30;14.83;;;10.80;66.70;;;-142.21;100.00;112049.66;4954392;28;20448;-73
2022/04/01 02:17:07;;;;;;;19.00;14.53;;;10.90;66.60;;;-142.21;100.00;112049.66;4957405;29;20460;-73
2022/04/01 02:19:34;;;;;;;22.27;15.23;;;10.80;66.80;;;-142.21;100.00;112049.66;4956419;29;20455;-73
2022/04/01 02:22:01;;;;;;;20.20;15.10;;;10.80;67.00;;;-142.21;100.00;112049.66;4956997;29;20936;-72
2022/04/01 02:24:29;;;;;;;23.87;15.43;;;10.80;67.20;;;-142.21;100.00;112049.66;4956007;28;20486;-73
2022/04/01 02:26:58;;;;;;;22.20;15.00;;;10.80;67.20;;;-142.21;100.00;112049.66;4957268;29;20476;-72
2022/04/01 02:29:25;;;;;;;23.20;15.73;;;10.80;67.30;;;-142.21;100.00;112049.66;4955798;28;20980;-73
2022/04/01 02:31:54;;;;;;;22.53;15.73;;;10.80;67.50;;;-142.21;100.00;112049.66;4956531;29;20479;-73
2022/04/01 02:34:24;;;;;;;21.07;15.43;;;10.80;67.30;;;-142.21;100.00;112049.66;4956494;29;20457;-73
2022/04/01 02:36:51;;;;;;;22.60;15.20;;;10.90;67.20;;;-142.21;100.00;112049.66;4956507;29;20465;-73
2022/04/01 02:39:19;;;;;;;21.67;15.47;;;10.90;67.00;;;-142.21;100.00;112049.66;4956555;29;20455;-73
2022/04/01 02:41:46;;;;;;;23.83;15.57;;;10.80;66.70;;;-142.21;100.00;112049.66;4955918;29;20453;-73
2022/04/01 02:44:13;;;;;;;22.67;16.37;;;10.80;66.80;;;-142.21;100.00;112049.66;4956602;29;20460;-73
2022/04/01 02:46:43;;;;;;;20.67;15.20;;;10.80;67.00;;;-142.21;100.00;112049.66;4953451;29;20457;-73
2022/04/01 02:49:16;;;;;;;24.17;16.03;;;10.80;67.50;;;-142.21;100.00;112049.66;4953441;29;20441;-73
2022/04/01 02:51:45;;;;;;;21.23;14.67;;;10.80;67.00;;;-142.21;100.00;112049.66;4955165;29;20946;-73
2022/04/01 02:54:13;;;;;;;24.07;15.70;;;10.80;67.20;;;-142.21;100.00;112049.66;4956571;29;20459;-73
2022/04/01 02:56:43;;;;;;;24.10;15.33;;;10.70;66.40;;;-142.21;100.00;112049.66;4956249;29;20461;-73
2022/04/01 02:59:11;;;;;;;23.63;15.67;;;10.70;67.00;;;-142.21;100.00;112049.66;4954869;29;20481;-71
2022/04/01 03:01:42;;;;;;;23.13;16.03;;;10.70;66.90;;;-142.21;100.00;112049.66;4955692;29;20472;-73
2022/04/01 03:04:12;;;;;;;20.70;14.57;;;10.70;67.00;;;-142.21;100.00;112049.66;4968358;28;20837;-73
2022/04/01 03:06:40;;;;;;;22.23;15.90;;;10.70;66.90;;;-142.21;100.00;112049.66;4968486;28;20532;-73
2022/04/01 03:09:08;;;;;;;22.47;15.90;;;10.70;66.60;;;-142.21;100.00;112049.66;4955773;29;21009;-73
2022/04/01 03:11:36;;;;;;;21.60;15.30;;;10.70;66.20;;;-142.21;100.00;112049.66;4958454;28;20528;-73
2022/04/01 03:14:03;;;;;;;20.30;15.03;;;10.70;66.70;;;-142.21;100.00;112049.66;4954773;29;20488;-72
2022/04/01 03:16:31;;;;;;;22.57;15.27;;;10.60;66.50;;;-142.21;100.00;112049.66;4956394;29;20547;-73
2022/04/01 03:18:59;;;;;;;22.10;16.10;;;10.70;66.50;;;-142.21;100.00;112049.66;4954771;29;20461;-72
2022/04/01 03:21:29;;;;;;;20.10;14.40;;;10.70;66.20;;;-142.21;100.00;112049.66;4951680;29;20549;-73
2022/04/01 03:23:57;;;;;;;20.90;15.03;;;10.70;66.20;;;-142.21;100.00;112049.66;4948294;29;20523;-72
2022/04/01 03:26:24;;;;;;;21.77;15.17;;;10.70;66.20;;;-142.21;100.00;112049.66;4943614;29;20777;-72
2022/04/01 03:28:51;;;;;;;20.33;14.77;;;10.70;66.20;;;-142.21;100.00;112049.66;4951928;29;20473;-72
2022/04/01 03:31:18;;;;;;;20.00;14.23;;;10.60;66.70;;;-142.21;100.00;112049.66;4956121;29;20909;-72
2022/04/01 03:33:46;;;;;;;19.57;14.17;;;10.60;65.60;;;-142.21;100.00;112049.66;4955401;29;20576;-72
2022/04/01 03:36:14;;;;;;;18.20;13.83;;;10.60;66.30;;;-142.21;100.00;112049.66;4955444;28;20816;-72
2022/04/01 03:38:43;;;;;;;19.33;14.30;;;10.60;66.40;;;-142.21;100.00;112049.66;4954811;29;20499;-72
2022/04/01 03:41:11;;;;;;;20.33;14.27;;;10.60;66.10;;;-142.21;100.00;112049.66;4955348;29;20455;-72
2022/04/01 03:43:40;;;;;;;19.60;14.83;;;10.60;66.00;;;-142.21;100.00;112049.66;4952410;29;20507;-72
2022/04/01 03:46:10;;;;;;;19.70;14.67;;;10.50;65.20;;;-142.21;100.00;112049.66;4943195;29;20457;-72
2022/04/01 03:48:44;;;;;;;18.10;13.90;;;10.50;65.80;;;-142.21;100.00;112049.66;4954664;29;20544;-72
2022/04/01 03:51:18;;;;;;;18.93;14.10;;;10.50;65.70;;;-142.21;100.00;112049.66;4954392;29;20444;-73
2022/04/01 03:53:55;;;;;;;19.67;14.03;;;10.50;66.00;;;-142.21;100.00;112049.66;4955017;29;20476;-72
2022/04/01 03:56:30;;;;;;;19.10;14.27;;;10.50;65.20;;;-142.21;100.00;112049.66;4954601;29;20456;-73
2022/04/01 03:59:02;;;;;;;20.00;14.80;;;10.50;65.50;;;-142.21;100.00;112049.66;4954936;29;20457;-72
2022/04/01 04:01:32;;;;;;;19.80;14.53;;;10.40;65.40;;;-142.21;100.00;112049.66;4954900;29;20524;-73
2022/04/01 04:04:01;;;;;;;17.43;13.97;;;10.40;65.00;;;-142.21;100.00;112049.66;4954598;29;20449;-73
2022/04/01 04:06:29;;;;;;;19.40;14.33;;;10.40;65.00;;;-142.21;100.00;112049.66;4955069;29;20452;-73
2022/04/01 04:09:00;;;;;;;18.87;13.93;;;10.40;65.00;;;-142.21;100.00;112049.66;4955049;29;20854;-73
2022/04/01 04:11:31;;;;;;;19.87;14.53;;;10.40;65.10;;;-142.21;100.00;112049.66;4954357;29;20942;-73
2022/04/01 04:14:00;;;;;;;17.60;13.30;;;10.30;64.90;;;-142.21;100.00;112049.66;4955027;29;20484;-73
2022/04/01 04:16:30;;;;;;;17.10;13.87;;;10.30;64.90;;;-142.21;100.00;112049.66;4954345;29;20476;-73
2022/04/01 04:19:07;;;;;;;17.07;13.00;;;10.40;64.80;;;-142.21;100.00;112049.66;4949857;28;20453;-73
2022/04/01 04:21:42;;;;;;;16.17;12.90;;;10.40;64.70;;;-142.21;100.00;112049.66;4951845;29;20475;-73
2022/04/01 04:24:26;;;;;;;17.20;13.73;;;10.30;64.40;;;-142.21;100.00;112049.66;4955512;28;20476;-73
2022/04/01 04:26:55;;;;;;;16.03;12.93;;;10.20;63.80;;;-142.21;100.00;112049.66;4955261;28;20463;-73
2022/04/01 04:29:28;;;;;;;16.30;13.50;;;10.20;63.90;;;-142.21;100.00;112049.66;4956785;29;20523;-73
2022/04/01 04:32:03;;;;;;;16.53;13.43;;;10.10;64.50;;;-142.21;100.00;112049.66;4955739;29;20548;-73
2022/04/01 04:34:37;;;;;;;18.83;15.20;;;10.10;64.70;;;-142.21;100.00;112049.66;4954502;29;20479;-73
2022/04/01 04:37:09;;;;;;;17.20;13.27;;;10.10;65.30;;;-142.21;100.00;112049.66;4955390;29;20528;-72
2022/04/01 04:39:39;;;;;;;18.60;13.53;;;10.10;65.10;;;-142.21;100.00;112049.66;4953518;28;20446;-73
2022/04/01 04:42:09;;;;;;;17.77;14.10;;;10.20;64.40;;;-142.21;100.00;112049.66;4954462;29;20453;-73
2022/04/01 04:44:37;;;;;;;16.80;13.20;;;10.20;64.20;;;-142.21;100.00;112049.66;4954561;29;20532;-73
2022/04/01 04:47:06;;;;;;;18.53;13.90;;;10.10;63.70;;;-142.21;100.00;112049.66;4954659;29;20452;-73
2022/04/01 04:49:34;;;;;;;17.40;14.07;;;10.20;64.10;;;-142.21;100.00;112049.66;4947219;28;20541;-73
2022/04/01 04:52:02;;;;;;;16.10;12.93;;;10.20;63.70;;;-142.21;100.00;112049.66;4953034;29;20464;-73
2022/04/01 04:54:29;;;;;;;16.57;13.03;;;10.10;63.60;;;-142.21;100.00;112049.66;4953651;29;20516;-73
2022/04/01 04:56:58;;;;;;;16.73;13.40;;;10.10;63.40;;;-142.21;100.00;112049.66;4953762;28;20622;-74
2022/04/01 04:59:26;;;;;;;17.73;13.17;;;10.10;63.60;;;-142.21;100.00;112049.66;4953437;28;20449;-74
2022/04/01 05:02:02;;;;;;;17.37;13.47;;;10.10;63.50;;;-142.21;100.00;112049.66;4953192;28;20463;-74
2022/04/01 05:04:55;;;;;;;17.97;14.10;;;10.10;63.40;;;-142.21;100.00;112049.66;4935498;29;20515;-74
2022/04/01 05:07:43;;;;;;;16.27;13.63;;;10.10;63.30;;;-142.21;100.00;112049.66;4918938;29;20471;-74
2022/04/01 05:10:16;;;;;;;16.13;12.73;;;10.00;64.50;;;-142.21;100.00;112049.66;4953112;29;20536;-73
2022/04/01 05:12:58;;;;;;;16.43;13.60;;;10.00;63.80;;;-142.21;100.00;112049.66;4951841;29;20488;-73
2022/04/01 05:15:31;;;;;;;16.00;13.10;;;9.90;65.20;;;-142.21;100.00;112049.66;4952825;28;20503;-74
2022/04/01 05:18:09;;;;;;;16.97;13.03;;;10.00;63.70;;;-142.21;100.00;112049.66;4952235;28;20446;-74
2022/04/01 05:20:39;;;;;;;17.13;13.40;;;10.00;63.80;;;-142.21;100.00;112049.66;4940972;29;20445;-74
2022/04/01 05:23:14;;;;;;;16.40;13.57;;;10.00;64.20;;;-142.21;100.00;112049.66;4951640;28;20478;-75
2022/04/01 05:25:44;;;;;;;17.43;13.40;;;10.00;63.50;;;-142.21;100.00;112049.66;4943942;28;20495;-74
2022/04/01 05:28:23;;;;;;;14.90;12.53;;;10.00;63.20;;;-142.21;100.00;112049.66;4952329;29;20547;-75
2022/04/01 05:31:04;;;;;;;15.13;12.23;;;10.00;63.10;;;-142.21;100.00;112049.66;4952729;29;20459;-74
2022/04/01 05:33:42;;;;;;;14.17;12.57;;;10.00;62.90;;;-142.21;100.00;112049.66;4936369;29;20514;-74
2022/04/01 05:36:12;;;;;;;16.57;12.63;;;10.00;62.90;;;-142.21;100.00;112049.66;4954137;29;20448;-74
2022/04/01 05:38:40;;;;;;;15.87;12.80;;;10.00;62.20;;;-142.21;100.00;112049.66;4953779;29;20453;-74
2022/04/01 05:41:08;;;;;;;15.43;13.10;;;9.90;63.00;;;-142.21;100.00;112049.66;4954395;29;20453;-74
2022/04/01 05:43:41;;;;;;;15.73;13.07;;;9.90;63.40;;;-142.21;100.00;112049.66;4953253;29;20456;-74
2022/04/01 05:46:12;;;;;;;15.77;12.40;;;9.80;63.70;;;-142.21;100.00;112049.66;4954137;29;20440;-74
2022/04/01 05:48:41;;;;;;;17.93;13.33;;;9.80;64.00;;;-142.21;100.00;112049.66;4953245;29;20443;-74
2022/04/01 05:51:13;;;;;;;16.70;13.07;;;9.80;63.90;;;-142.21;100.00;112049.66;4957022;28;20463;-74
2022/04/01 05:53:43;;;;;;;16.30;13.13;;;9.90;63.80;;;-142.21;100.00;112049.66;4957265;29;20508;-74
2022/04/01 05:56:12;;;;;;;14.53;12.37;;;9.90;63.90;;;-142.21;100.00;112049.66;4957870;29;20470;-73
2022/04/01 05:58:42;;;;;;;15.17;12.53;;;9.90;63.10;;;-142.21;100.00;112049.66;4956441;29;20547;-74
2022/04/01 06:01:20;;;;;;;15.73;13.37;;;9.90;63.30;;;-142.21;100.00;112049.66;4957964;29;20453;-74
2022/04/01 06:04:44;;;;;;;15.00;12.83;;;9.80;63.50;;;-142.21;100.00;112049.66;4957154;29;20445;-73
2022/04/01 06:07:26;;;;;;;13.50;11.73;;;9.80;62.90;;;-142.21;100.00;112049.66;4956553;29;20552;-73
2022/04/01 06:10:09;;;;;;;15.37;12.37;;;9.80;63.30;;;-142.21;100.00;112049.66;4956693;29;20467;-74
2022/04/01 06:12:52;;;;;;;15.23;12.33;;;9.90;63.40;;;-142.21;100.00;112049.66;4957688;29;20460;-74
2022/04/01 06:15:37;;;;;;;16.63;13.40;;;9.90;62.90;;;-142.21;100.00;112049.66;4956691;28;21027;-74
2022/04/01 06:18:33;;;;;;;17.73;13.27;;;9.90;62.90;;;-142.21;100.00;112049.66;4956270;29;20437;-74
2022/04/01 06:21:04;;;;;;;13.63;11.70;;;9.80;63.70;;;-142.21;100.00;112049.66;4955735;29;20996;-74
2022/04/01 06:23:54;;;;;;;16.70;13.27;;;9.90;63.20;;;-142.21;100.00;112049.66;4956304;28;20543;-74
2022/04/01 06:26:23;;;;;;;14.30;12.30;;;9.80;62.90;;;-142.21;100.00;112049.66;4942945;29;20461;-74
2022/04/01 06:29:01;;;;;;;15.53;12.87;;;9.80;63.20;;;-142.21;100.00;112049.66;4956029;29;20498;-75
2022/04/01 06:31:33;;;;;;;15.20;13.23;;;9.90;63.40;;;-142.21;100.00;112049.66;4956779;29;20448;-75
2022/04/01 06:34:12;;;;;;;15.83;12.77;;;9.80;62.50;;;-142.21;100.00;112049.66;4955570;29;20480;-74
2022/04/01 06:36:41;;;;;;;16.93;13.30;;;9.90;63.00;;;-142.21;100.00;112049.66;4956316;29;20489;-74
2022/04/01 06:39:11;;;;;;;15.63;12.70;;;9.90;63.50;;;-142.21;100.00;112049.66;4956047;29;20543;-74
2022/04/01 06:41:45;;;;;;;15.50;12.80;;;9.80;63.00;;;-142.21;100.00;112049.66;4956391;28;20825;-74
2022/04/01 06:44:13;;;;;;;15.83;12.93;;;9.80;62.90;;;-142.21;100.00;112049.66;4954908;29;20445;-74
2022/04/01 06:46:41;;;;;;;16.07;12.33;;;9.70;62.70;;;-142.21;100.00;112049.66;4956148;29;20478;-73
2022/04/01 06:49:09;;;;;;;16.57;13.03;;;9.80;63.20;;;-142.21;100.00;112049.66;4955503;29;20536;-74
2022/04/01 06:51:37;;;;;;;14.83;11.23;;;9.80;63.00;;;-142.21;100.00;112049.66;4956139;28;20453;-74
2022/04/01 06:54:06;;;;;;;16.23;12.73;;;9.80;62.90;;;-142.21;100.00;112049.66;4955229;29;20834;-74
2022/04/01 06:56:34;;;;;;;14.73;12.23;;;9.80;62.80;;;-142.21;100.00;112049.66;4955147;28;21019;-74
2022/04/01 06:59:01;;;;;;;15.03;12.80;;;9.80;62.90;;;-142.21;100.00;112049.66;4956116;29;20535;-74
2022/04/01 07:01:28;;;;;;;15.63;12.93;;;9.70;62.80;;;-142.21;100.00;112049.66;4954275;28;20942;-74
2022/04/01 07:03:57;;;;;;;15.60;12.57;;;9.70;62.90;;;-142.21;100.00;112049.66;4955857;29;20455;-74
2022/04/01 07:06:24;;;;;;;16.27;12.70;;;9.70;62.80;;;-142.21;100.00;112049.66;4955877;28;20471;-75
2022/04/01 07:08:51;;;;;;;15.50;12.20;;;9.70;63.20;;;-142.21;100.00;112049.66;4956181;29;20467;-74
2022/04/01 07:11:19;;;;;;;17.03;12.90;;;9.70;63.20;;;-142.21;100.00;112049.66;4954353;29;20454;-74
2022/04/01 07:13:47;;;;;;;16.03;12.83;;;9.70;63.40;;;-142.21;100.00;112049.66;4955525;29;20496;-74
2022/04/01 07:16:14;;;;;;;17.17;13.20;;;9.70;63.10;;;-142.21;100.00;112049.66;4956270;29;20448;-74
2022/04/01 07:18:41;;;;;;;15.30;12.47;;;9.70;63.40;;;-142.21;100.00;112049.66;4954959;29;20468;-74
2022/04/01 07:21:10;;;;;;;16.97;12.73;;;9.70;63.40;;;-142.21;100.00;112049.66;4955857;28;20449;-74
2022/04/01 07:23:37;;;;;;;17.40;12.10;;;9.80;63.00;;;-142.21;100.00;112049.66;4954962;28;20477;-74
2022/04/01 07:26:05;;;;;;;14.23;11.87;;;9.80;62.90;;;-142.21;100.00;112049.66;4955463;29;20492;-74
2022/04/01 07:28:32;;;;;;;13.87;11.57;;;9.80;62.90;;;-142.21;100.00;112049.66;4955673;28;20524;-74
2022/04/01 07:32:28;;;;;;;15.23;12.47;;;9.80;62.60;;;-142.21;100.00;112049.66;4955706;29;20464;-74
2022/04/01 07:33:47;;;;;;;13.20;11.13;;;9.80;63.00;;;-142.21;100.00;112049.66;4954358;29;20503;-74
2022/04/01 07:36:16;;;;;;;15.90;12.57;;;9.80;62.90;;;-142.21;100.00;112049.66;4955676;29;20445;-74
2022/04/01 07:38:44;;;;;;;15.20;12.10;;;9.70;63.00;;;-142.21;100.00;112049.66;4955175;29;20941;-74
2022/04/01 07:41:11;;;;;;;16.77;12.40;;;9.70;63.00;;;-142.21;100.00;112049.66;4955661;28;20979;-74
2022/04/01 07:43:39;;;;;;;17.13;11.70;;;9.70;62.80;;;-142.21;100.00;112049.66;4955557;29;20449;-74
2022/04/01 07:46:06;;;;;;;16.67;12.47;;;9.80;63.40;;;-142.21;100.00;112049.66;4960452;28;20538;-74
2022/04/01 07:48:33;;;;;;;14.57;12.00;;;9.90;63.10;;;-142.21;100.00;112049.66;4955559;29;20511;-74
2022/04/01 07:51:00;;;;;;;14.97;12.17;;;9.80;62.90;;;-142.21;100.00;112049.66;4955425;29;20535;-74
2022/04/01 07:53:29;;;;;;;13.43;11.53;;;9.90;62.60;;;-142.21;100.00;112049.66;4955174;29;20953;-74
2022/04/01 07:55:56;;;;;;;14.53;11.40;;;9.80;62.50;;;-142.21;100.00;112049.66;4954788;29;20468;-75
2022/04/01 07:58:23;;;;;;;14.37;11.80;;;9.80;62.50;;;-142.21;100.00;112049.66;4957137;29;20463;-75
2022/04/01 08:00:50;;;;;;;14.20;11.93;;;9.90;62.30;;;-142.21;100.00;112049.66;4959627;29;20453;-75
2022/04/01 08:03:18;;;;;;;13.80;10.67;;;9.90;62.40;;;-142.21;100.00;112049.66;4954810;28;20449;-74
2022/04/01 08:05:45;;;;;;;13.53;11.30;;;9.90;62.20;;;-142.21;100.00;112049.66;4960183;29;20480;-74
2022/04/01 08:08:12;;;;;;;13.83;11.30;;;10.00;61.50;;;-142.21;100.00;112049.66;4957466;29;20544;-75
2022/04/01 08:10:41;;;;;;;11.60;10.40;;;10.00;61.00;;;-142.21;100.00;112049.66;4955185;29;20445;-74
2022/04/01 08:13:08;;;;;;;13.93;11.20;;;10.00;61.30;;;-142.21;100.00;112049.66;4954026;28;20445;-74
2022/04/01 08:15:35;;;;;;;13.60;10.83;;;10.10;61.20;;;-142.21;100.00;112049.66;4954561;28;20489;-73
2022/04/01 08:18:02;;;;;;;12.77;10.73;;;10.10;61.30;;;-142.21;100.00;112049.66;4955276;29;20448;-73
2022/04/01 08:20:29;;;;;;;12.47;10.87;;;10.10;60.40;;;-142.21;100.00;112049.66;4953633;29;20949;-73
2022/04/01 08:22:56;;;;;;;12.80;10.70;;;10.10;60.30;;;-142.21;100.00;112049.66;4954067;28;20492;-73
2022/04/01 08:25:23;;;;;;;12.13;10.40;;;10.10;60.40;;;-142.21;100.00;112049.66;4953665;29;20971;-74
2022/04/01 08:27:52;;;;;;;13.00;9.90;;;10.10;60.50;;;-142.21;99.87;112049.66;4954178;29;20957;-74
2022/04/01 08:30:19;;;;;;;12.03;10.23;;;10.00;60.00;;;-142.21;99.62;112049.66;4953828;29;20453;-74
2022/04/01 08:32:46;;;;;;;11.07;9.40;;;10.00;60.30;;;-142.21;99.22;112049.66;4954050;29;20459;-74
2022/04/01 08:35:13;;;;;;;10.50;9.20;;;10.00;60.30;;;-142.21;100.00;112049.66;4954014;29;20571;-74
2022/04/01 08:37:40;;;;;;;10.90;9.27;;;10.00;60.30;;;-142.21;100.00;112049.66;4953640;29;20461;-73
2022/04/01 08:40:10;;;;;;;12.93;10.23;;;10.00;60.50;;;-142.21;100.00;112049.66;4954298;29;20461;-73
2022/04/01 08:42:37;;;;;;;10.83;8.70;;;10.10;61.30;;;-142.21;100.00;112049.66;4953550;29;20467;-74
2022/04/01 08:45:07;;;;;;;10.37;8.83;;;10.00;60.50;;;-142.21;99.95;112049.66;4954459;29;20778;-75
2022/04/01 08:47:38;;;;;;;10.10;9.03;;;10.00;60.00;;;-142.21;100.00;112049.66;4953456;29;20456;-73
2022/04/01 08:50:08;;;;;;;10.33;9.20;;;10.10;60.90;;;-142.21;99.64;112049.66;4954584;29;20445;-74
2022/04/01 08:52:35;;;;;;;10.30;8.13;;;10.00;60.00;;;-142.21;100.00;112049.66;4953394;29;20445;-74
2022/04/01 08:55:05;;;;;;;8.60;7.20;;;10.00;60.10;;;-142.21;99.44;112049.66;4954468;29;20498;-75
2022/04/01 08:57:37;;;;;;;9.40;8.40;;;10.00;59.80;;;-142.21;99.26;112049.66;4954304;29;20531;-74
2022/04/01 09:00:35;;;;;;;9.43;8.43;;;10.00;59.80;;;-142.21;98.84;112049.66;4920639;29;20453;-74
2022/04/01 09:03:08;;;;;;;9.00;8.10;;;9.90;60.90;;;-142.21;98.28;112049.66;4953299;29;20480;-74
2022/04/01 09:05:36;;;;;;;9.27;7.80;;;9.90;61.20;;;-142.21;98.20;112049.66;4954266;29;20493;-74
2022/04/01 09:08:06;;;;;;;8.90;7.83;;;9.80;60.30;;;-142.21;98.68;112049.66;4953160;28;20810;-73
2022/04/01 09:10:52;;;;;;;9.53;8.13;;;9.80;60.70;;;-142.21;98.16;112049.66;4954386;29;20858;-73
2022/04/01 09:13:20;;;;;;;9.30;8.23;;;9.80;60.40;;;-142.21;97.34;112049.66;4953633;29;20456;-74
2022/04/01 09:15:49;;;;;;;10.20;8.83;;;9.80;60.50;;;-142.21;99.14;112049.66;4953452;29;20492;-73
2022/04/01 09:18:38;;;;;;;8.83;7.93;;;9.80;60.90;;;-142.21;99.10;112049.66;4953957;29;20515;-73
2022/04/01 09:21:06;;;;;;;8.00;7.20;;;9.80;61.00;;;-142.21;97.22;112049.66;4952130;29;20946;-71
2022/04/01 09:23:34;;;;;;;9.37;7.80;;;9.90;60.40;;;-142.21;97.29;112049.66;4953579;29;20480;-73
2022/04/01 09:26:02;;;;;;;9.37;8.23;;;9.80;60.00;;;-142.21;98.67;112049.66;4952036;28;20445;-73
2022/04/01 09:28:32;;;;;;;8.67;7.77;;;9.80;60.30;;;-142.21;98.43;112049.66;4954035;29;20495;-72
2022/04/01 09:31:14;;;;;;;9.00;7.97;;;9.80;60.80;;;-142.21;98.89;112049.66;4953518;29;20453;-72
2022/04/01 09:33:50;;;;;;;8.73;7.17;;;9.80;61.00;;;-142.21;98.05;112049.66;4951850;29;20540;-73
2022/04/01 09:36:22;;;;;;;8.37;7.57;;;9.70;60.60;;;-142.21;98.64;112049.66;4953383;29;20535;-73
2022/04/01 09:38:59;;;;;;;8.53;7.27;;;9.80;60.90;;;-142.21;99.54;112049.66;4939209;29;20477;-73
2022/04/01 09:41:35;;;;;;;8.30;7.40;;;9.70;61.00;;;-142.21;98.07;112049.66;4943797;29;20831;-73
2022/04/01 09:44:07;;;;;;;8.80;7.40;;;9.60;60.90;;;-142.21;98.45;112049.66;4954757;29;20507;-73
2022/04/01 09:46:42;;;;;;;9.00;7.40;;;9.70;61.10;;;-142.21;98.77;112049.66;4953724;29;20520;-73
2022/04/01 09:49:10;;;;;;;7.73;6.93;;;9.70;61.30;;;-142.21;98.60;112049.66;4954377;29;20459;-73
2022/04/01 09:51:43;;;;;;;9.00;8.00;;;9.70;60.80;;;-142.21;100.00;112049.66;4953682;29;20452;-73
2022/04/01 09:54:12;;;;;;;8.00;7.20;;;9.70;61.40;;;-142.21;98.87;112049.66;4953975;29;20922;-73
2022/04/01 09:56:45;;;;;;;8.63;7.73;;;9.70;61.10;;;-142.21;99.47;112049.66;4953675;29;20452;-73
2022/04/01 09:59:16;;;;;;;11.23;8.17;;;9.80;61.30;;;-142.21;100.00;112049.66;4954367;29;20861;-74
2022/04/01 10:01:45;;;;;;;9.63;8.20;;;9.80;61.50;;;-142.21;100.00;112049.66;4954473;29;20468;-74